• Join FlightAware (Why Join?)
  • Login
  • US Flag 
10:29AM EDT


 

Airport Tracker/Info


-or-


 

Live Flight TrackerFlight Track Log ✈ SWA3143 ✈ 12-Apr-2013 ✈ KMHT - KBWI

Flight Track Log - Related Links

Times and Time Zones

All times are in EDT time to prevent confusion due to time zone crossing. See the SWA3143 flight status page for this flight to view local times or setup timezone preferences in your user account.

Time Position Orientation Groundspeed Altitude Reporting Facility
EDT Latitude Longitude Course Direction KTS MPH feet Rate Location/Type
05:21PM 42.9667 -71.4167 360° North 163 188 2,300  Level KA90
05:21PM 43.0064 -71.3981 19° North 222 255 3,600 2,100 Climbing Boston Center
05:22PM 43.0747 -71.3658 19° North 282 325 6,100 2,580 Climbing Boston Center
05:23PM 43.1219 -71.2881 50° Northeast 264 304 8,800 2,460 Climbing Boston Center
05:24PM 43.0856 -71.1892 117° Southeast 250 288 11,100 2,460 Climbing Boston Center
05:25PM 43.0689 -71.0306 98° East 343 395 13,800 2,520 Climbing Boston Center
05:26PM 43.0197 -70.9150 120° Southeast 388 447 16,300 2,520 Climbing Boston Center
05:27PM 42.9156 -70.9206 182° South 323 372 18,900 2,460 Climbing Boston Center
05:28PM 42.8283 -70.9594 198° South 339 390 21,200 2,280 Climbing Boston Center
05:29PM 42.7289 -71.0072 199° South 364 419 23,500 2,160 Climbing Boston Center
05:30PM 42.6233 -71.0575 199° South 394 453 25,700 2,100 Climbing Boston Center
05:31PM 42.5458 -71.1972 233° Southwest 375 432 28,100 2,040 Climbing Boston Center
05:32PM 42.4950 -71.3250 242° Southwest 383 441 30,200 2,160 Climbing Boston Center
05:34PM 42.4442 -71.4553 242° Southwest 388 447 32,500 1,860 Climbing Boston Center
05:35PM 42.3908 -71.5772 239° Southwest 388 447 34,000 720 Climbing Boston Center
05:35PM 42.3397 -71.7014 241° Southwest 383 441 34,000  Level Boston Center
05:36PM 42.2903 -71.8256 242° Southwest 383 441 34,000  Level Boston Center
05:37PM 42.2408 -71.9494 242° Southwest 378 435 34,000  Level Boston Center
05:39PM 42.1914 -72.0731 242° Southwest 378 435 34,000  Level Boston Center
05:40PM 42.1417 -72.1964 241° Southwest 378 435 34,000 -60 Level Boston Center
05:40PM 42.0878 -72.3283 241° Southwest 373 429 33,900 -660 Descending Boston Center
05:41PM 42.0397 -72.4456 241° Southwest 373 429 32,800 -1,080 Descending Boston Center
05:43PM 41.9939 -72.5631 242° Southwest 367 422 31,800 -1,200 Descending Boston Center
05:43PM 41.9564 -72.6550 241° Southwest 353 406 30,500 -960 Descending Boston Center
05:44PM 41.8997 -72.7442 230° Southwest 340 391 30,000 -300 Descending Boston Center
05:45PM 41.8181 -72.8578 226° Southwest 352 405 30,000  Level Boston Center
05:46PM 41.7428 -72.9631 226° Southwest 374 430 30,000  Level Boston Center
05:48PM 41.6672 -73.0653 225° Southwest 385 443 30,000  Level Boston Center
05:49PM 41.5872 -73.1728 225° Southwest 396 456 30,000  Level Boston Center
05:51PM 41.4197 -73.3994 225° Southwest 391 450 30,000  Level New York Center
05:52PM 41.3403 -73.5042 225° Southwest 396 456 30,000  Level New York Center
05:53PM 41.2650 -73.6114 227° Southwest 396 456 30,000  Level New York Center
05:54PM 41.1975 -73.7272 232° Southwest 396 456 30,000  Level New York Center
05:55PM 41.1278 -73.8425 231° Southwest 402 463 30,000  Level New York Center
05:56PM 41.0625 -73.9550 232° Southwest 402 463 30,000  Level New York Center
05:57PM 40.9947 -74.0700 232° Southwest 402 463 30,000  Level New York Center
05:58PM 40.9164 -74.1897 229° Southwest 402 463 30,000 -360 Level New York Center
05:59PM 40.8483 -74.3044 232° Southwest 402 463 29,300 -1,020 Descending New York Center
06:00PM 40.7825 -74.4133 231° Southwest 397 457 28,000 -900 Descending New York Center
06:01PM 40.7186 -74.5275 234° Southwest 397 457 27,500 -780 Descending New York Center
06:02PM 40.6811 -74.6569 249° West 387 445 26,500 -1,080 Descending New York Center
06:03PM 40.6414 -74.7858 248° West 387 445 25,500 -1,020 Descending New York Center
06:04PM 40.5956 -74.9033 243° Southwest 387 445 24,500 -1,020 Descending New York Center
06:05PM 40.5517 -75.0236 244° Southwest 374 430 23,500 -1,020 Descending New York Center
06:06PM 40.5078 -75.1383 243° Southwest 368 423 22,500 -1,020 Descending New York Center
06:07PM 40.4336 -75.2264 222° Southwest 358 412 21,500 -1,020 Descending New York Center
06:08PM 40.3519 -75.2975 214° Southwest 353 406 20,500 -1,020 Descending New York Center
06:09PM 40.2719 -75.3656 213° Southwest 353 406 19,500 -780 Descending New York Center
06:10PM 40.1967 -75.4314 214° Southwest 361 415 19,000 -300 Descending New York Center
06:11PM 40.1103 -75.5069 214° Southwest 356 410 19,000  Level New York Center
06:12PM 40.0411 -75.5644 212° Southwest 343 395 19,000  Level New York Center
06:13PM 39.9625 -75.6514 220° Southwest 343 395 19,000  Level New York Center
06:14PM 39.9108 -75.7397 233° Southwest 335 386 19,000 -1,020 Level New York Center
06:15PM 39.8503 -75.8408 232° Southwest 340 391 17,000 -1,980 Descending New York Center
06:17PM 39.7167 -76.0500 230° Southwest 316 364 12,400 -1,500 Descending Potomac TRACON
06:18PM 39.6667 -76.1333 232° Southwest 285 328 12,000 -600 Descending Potomac TRACON
06:19PM 39.6500 -76.2333 258° West 263 303 11,200 -1,200 Descending Potomac TRACON
06:20PM 39.6500 -76.3333 270° West 261 300 9,600 -1,620 Descending Potomac TRACON
06:21PM 39.6333 -76.4167 255° West 257 296 8,000 -1,620 Descending Potomac TRACON
06:22PM 39.6000 -76.5000 243° Southwest 252 290 6,400 -1,500 Descending Potomac TRACON
06:23PM 39.5500 -76.5667 226° Southwest 257 296 5,000 -1,200 Descending Potomac TRACON
06:24PM 39.5167 -76.6333 237° Southwest 257 296 4,000 -540 Descending Potomac TRACON
06:25PM 39.4667 -76.7167 232° Southwest 257 296 4,000  Level Potomac TRACON
06:26PM 39.4167 -76.7833 226° Southwest 255 293 4,000  Level Potomac TRACON
06:27PM 39.3667 -76.8500 226° Southwest 240 276 4,000  Level Potomac TRACON
06:28PM 39.3333 -76.9000 229° Southwest 205 236 4,000 -420 Level Potomac TRACON
06:29PM 39.2833 -76.9167 194° South 172 198 3,200 -780 Descending Potomac TRACON
06:30PM 39.2333 -76.9167 180° South 175 201 2,500 -600 Descending Potomac TRACON
06:31PM 39.2000 -76.8833 142° Southeast 183 211 2,000 -300 Descending Potomac TRACON
06:32PM 39.1833 -76.8333 113° Southeast 177 204 2,000 -300 Level Potomac TRACON
06:33PM 39.1833 -76.7667 90° East 168 193 1,400 -660 Descending Potomac TRACON
06:34PM 39.1833 -76.7167 90° East 132 152 700 -720 Descending Potomac TRACON
06:36PM 39.1667 -76.6667 270° West  Level FlightAware Approximate
06:43PM 39.1754 -76.6683 270° West  Level Estimated
06:44PM 39.1754 -76.6683 270° West  Level Estimated
06:45PM 39.1754 -76.6683 270° West  Level Estimated
06:46PM 39.1754 -76.6683 270° West  Level Estimated
06:47PM 39.1754 -76.6683 270° West  Level Estimated